Overview Statistics Trail Chart Weather Telemetry Raw packets
 

This is the latest recevied weather packets stored in our database for station/object KQ4WWD. If no packets are shown the sender has not sent any weather packets the latest 10 day(s).

<< 20 21 22 23 24 25 26 >>
Time Temp. Humidity Pressure Rain* Wind** Luminosity Snow
1788473280 30.56° C 82% 1012.8 hPa 0 mm - 90 W/m² -
1788472975 30.56° C 82% 1012.7 hPa 0 mm - 110 W/m² -
1788472673 30.56° C 81% 1012.8 hPa 0 mm - 140 W/m² -
1788472370 30.56° C 81% 1012.6 hPa 0 mm - 184 W/m² -
1788472068 32.22° C 77% 1012.5 hPa 0 mm - 229 W/m² -
1788471764 31.67° C 76% 1012.5 hPa 0 mm - 277 W/m² -
1788471458 31.11° C 77% 1012.6 hPa 0 mm - 259 W/m² -
1788471154 31.67° C 76% 1012.5 hPa 0 mm - 189 W/m² -
1788470850 31.67° C 77% 1012.1 hPa 0 mm - 264 W/m² -
1788470547 31.67° C 77% 1012.2 hPa 0 mm - 255 W/m² -
1788470245 31.67° C 77% 1012.3 hPa 0 mm - 304 W/m² -
1788469942 31.11° C 79% 1012.5 hPa 0 mm - 284 W/m² -
1788469638 31.11° C 79% 1012.1 hPa 0 mm - 174 W/m² -
1788469333 31.11° C 78% 1012.6 hPa 0 mm - 169 W/m² -
1788469033 31.67° C 76% 1012.5 hPa 0 mm - 170 W/m² -
1788468732 32.22° C 75% 1012.4 hPa 0 mm - 182 W/m² -
1788468428 32.22° C 75% 1012.4 hPa 0 mm - 435 W/m² -
1788468124 32.22° C 75% 1012.4 hPa 0 mm - 255 W/m² -
1788467819 32.78° C 75% 1012.3 hPa 0 mm - 399 W/m² -
1788467514 32.78° C 73% 1012.4 hPa 0 mm - 439 W/m² -
1788467208 32.78° C 73% 1012.4 hPa 0 mm - 273 W/m² -
1788466904 32.78° C 74% 1012.4 hPa 0 mm - 508 W/m² -
1788466604 32.22° C 75% 1012.5 hPa 0 mm - 577 W/m² -
1788466304 32.78° C 75% 1012.7 hPa 0 mm - 652 W/m² -
1788465998 31.67° C 75% 1012.9 hPa 0 mm - 606 W/m² -

* Rain latest hour (hover to see other rain measurements)
** Current wind speed in m/s (hover to see current wind gust speed)